createdAt,value
2023-07-26T00:02:07.841Z,19.07
2023-07-26T00:04:35.891Z,19.06
2023-07-26T00:07:03.921Z,19.06
2023-07-26T00:09:32.132Z,19.04
2023-07-26T00:12:00.256Z,19.02
2023-07-26T00:14:28.413Z,18.99
2023-07-26T00:16:56.844Z,18.95
2023-07-26T00:19:24.850Z,18.92
2023-07-26T00:21:52.805Z,18.86
2023-07-26T00:24:20.634Z,18.81
2023-07-26T00:26:48.672Z,18.76
2023-07-26T00:29:16.654Z,18.73
2023-07-26T00:31:44.812Z,18.74
2023-07-26T00:34:12.849Z,18.73
2023-07-26T00:36:40.761Z,18.72
2023-07-26T00:39:08.828Z,18.69
2023-07-26T00:41:37.057Z,18.67
2023-07-26T00:44:07.866Z,18.63
2023-07-26T00:46:36.048Z,18.60
2023-07-26T00:49:04.755Z,18.55
2023-07-26T00:51:37.100Z,18.49
2023-07-26T00:54:09.437Z,18.44
2023-07-26T00:56:37.110Z,18.39
2023-07-26T00:59:07.223Z,18.34
2023-07-26T01:01:35.818Z,18.34
2023-07-26T01:04:03.870Z,18.34
2023-07-26T01:07:08.556Z,18.35
2023-07-26T01:10:06.379Z,18.36
2023-07-26T01:12:54.361Z,18.36
2023-07-26T01:15:34.258Z,18.33
2023-07-26T01:18:09.883Z,18.30
2023-07-26T01:20:38.234Z,18.26
2023-07-26T01:23:06.848Z,18.20
2023-07-26T01:25:35.403Z,18.16
2023-07-26T01:28:03.667Z,18.09
2023-07-26T01:30:33.957Z,18.07
2023-07-26T01:33:06.171Z,18.07
2023-07-26T01:35:36.512Z,18.09
2023-07-26T01:38:05.308Z,18.11
2023-07-26T01:40:34.252Z,18.10
2023-07-26T01:43:02.248Z,18.08
2023-07-26T01:45:30.375Z,18.05
2023-07-26T01:47:59.115Z,18.02
2023-07-26T01:50:27.081Z,17.99
2023-07-26T01:52:54.882Z,17.97
2023-07-26T01:55:22.973Z,17.97
2023-07-26T01:57:51.060Z,17.98
2023-07-26T02:00:18.899Z,17.97
2023-07-26T02:02:47.137Z,17.98
2023-07-26T02:05:15.226Z,17.97
2023-07-26T02:07:43.133Z,17.97
2023-07-26T02:10:11.064Z,17.94
2023-07-26T02:12:38.960Z,17.90
2023-07-26T02:15:07.333Z,17.88
2023-07-26T02:17:35.967Z,17.86
2023-07-26T02:20:05.832Z,17.86
2023-07-26T02:22:34.002Z,17.87
2023-07-26T02:25:01.960Z,17.87
2023-07-26T02:27:30.011Z,17.85
2023-07-26T02:29:57.853Z,17.83
2023-07-26T02:32:25.859Z,17.79
2023-07-26T02:34:53.994Z,17.74
2023-07-26T02:37:21.927Z,17.70
2023-07-26T02:39:50.377Z,17.71
2023-07-26T02:42:18.356Z,17.75
2023-07-26T02:44:47.249Z,17.79
2023-07-26T02:47:15.381Z,17.80
2023-07-26T02:49:43.211Z,17.79
2023-07-26T02:52:11.201Z,17.76
2023-07-26T02:54:39.054Z,17.73
2023-07-26T02:57:07.239Z,17.68
2023-07-26T02:59:35.224Z,17.65
2023-07-26T03:02:03.247Z,17.63
2023-07-26T03:04:31.207Z,17.62
2023-07-26T03:06:59.062Z,17.64
2023-07-26T03:09:26.952Z,17.64
2023-07-26T03:11:54.940Z,17.61
2023-07-26T03:14:22.783Z,17.61
2023-07-26T03:16:51.046Z,17.61
2023-07-26T03:19:23.985Z,17.58
2023-07-26T03:21:51.893Z,17.58
2023-07-26T03:24:19.705Z,17.60
2023-07-26T03:26:47.868Z,17.64
2023-07-26T03:29:15.949Z,17.69
2023-07-26T03:31:43.807Z,17.75
2023-07-26T03:34:11.718Z,17.78
2023-07-26T03:36:39.650Z,17.77
2023-07-26T03:39:07.587Z,17.73
2023-07-26T03:41:35.337Z,17.69
2023-07-26T03:44:03.691Z,17.66
2023-07-26T03:46:31.915Z,17.64
2023-07-26T03:49:00.657Z,17.64
2023-07-26T03:51:28.455Z,17.64
2023-07-26T03:53:56.346Z,17.66
2023-07-26T03:56:24.241Z,17.70
2023-07-26T03:58:52.040Z,17.72
2023-07-26T04:01:20.120Z,17.69
2023-07-26T04:03:48.217Z,17.68
2023-07-26T04:06:16.748Z,17.65
2023-07-26T04:08:44.684Z,17.63
2023-07-26T04:11:12.921Z,17.59
2023-07-26T04:13:40.984Z,17.57
2023-07-26T04:16:20.075Z,17.58
2023-07-26T04:18:48.666Z,17.62
2023-07-26T04:21:18.634Z,17.63
2023-07-26T04:23:47.384Z,17.62
2023-07-26T04:26:15.152Z,17.61
2023-07-26T04:28:43.157Z,17.59
2023-07-26T04:31:11.082Z,17.59
2023-07-26T04:33:40.638Z,17.55
2023-07-26T04:36:08.665Z,17.56
2023-07-26T04:38:36.391Z,17.59
2023-07-26T04:41:05.625Z,17.58
2023-07-26T04:43:33.530Z,17.57
2023-07-26T04:46:01.518Z,17.58
2023-07-26T04:48:29.549Z,17.56
2023-07-26T04:50:57.426Z,17.54
2023-07-26T04:53:25.188Z,17.55
2023-07-26T04:55:53.294Z,17.57
2023-07-26T04:58:21.037Z,17.60
2023-07-26T05:00:49.017Z,17.61
2023-07-26T05:03:17.197Z,17.62
2023-07-26T05:05:51.569Z,17.62
2023-07-26T05:08:20.014Z,17.59
2023-07-26T05:10:54.090Z,17.55
2023-07-26T05:13:24.416Z,17.53
2023-07-26T05:15:52.286Z,17.52
2023-07-26T05:18:20.060Z,17.53
2023-07-26T05:20:54.570Z,17.55
2023-07-26T05:23:22.604Z,17.58
2023-07-26T05:25:50.486Z,17.60
2023-07-26T05:28:18.500Z,17.58
2023-07-26T05:30:46.280Z,17.56
2023-07-26T05:33:14.406Z,17.53
2023-07-26T05:35:42.220Z,17.54
2023-07-26T05:38:10.220Z,17.54
2023-07-26T05:40:38.071Z,17.56
2023-07-26T05:43:05.974Z,17.58
2023-07-26T05:45:34.146Z,17.58
2023-07-26T05:48:02.004Z,17.57
2023-07-26T05:50:29.942Z,17.55
2023-07-26T05:52:57.886Z,17.52
2023-07-26T05:55:25.737Z,17.50
2023-07-26T05:57:54.114Z,17.52
2023-07-26T06:00:22.571Z,17.54
2023-07-26T06:02:50.446Z,17.54
2023-07-26T06:05:18.317Z,17.54
2023-07-26T06:07:46.455Z,17.52
2023-07-26T06:10:14.979Z,17.49
2023-07-26T06:12:43.307Z,17.46
2023-07-26T06:15:11.253Z,17.46
2023-07-26T06:17:39.522Z,17.47
2023-07-26T06:20:07.931Z,17.48
2023-07-26T06:22:35.751Z,17.50
2023-07-26T06:25:04.458Z,17.53
2023-07-26T06:27:32.563Z,17.52
2023-07-26T06:30:00.503Z,17.45
2023-07-26T06:32:28.721Z,17.46
2023-07-26T06:34:58.536Z,17.44
2023-07-26T06:37:26.317Z,17.45
2023-07-26T06:39:54.302Z,17.48
2023-07-26T06:42:22.178Z,17.50
2023-07-26T06:44:49.969Z,17.51
2023-07-26T06:47:18.488Z,17.50
2023-07-26T06:49:46.675Z,17.51
2023-07-26T06:52:14.716Z,17.53
2023-07-26T06:54:42.711Z,17.55
2023-07-26T06:57:11.462Z,17.56
2023-07-26T06:59:39.253Z,17.58
2023-07-26T07:02:07.576Z,17.55
2023-07-26T07:04:36.145Z,17.53
2023-07-26T07:07:04.239Z,17.51
2023-07-26T07:09:32.101Z,17.50
2023-07-26T07:12:00.318Z,17.51
2023-07-26T07:14:28.383Z,17.51
2023-07-26T07:16:56.469Z,17.54
2023-07-26T07:19:24.242Z,17.54
2023-07-26T07:21:52.421Z,17.55
2023-07-26T07:24:20.380Z,17.54
2023-07-26T07:26:48.355Z,17.50
2023-07-26T07:29:16.187Z,17.46
2023-07-26T07:31:44.174Z,17.47
2023-07-26T07:34:11.985Z,17.50
2023-07-26T07:36:39.924Z,17.54
2023-07-26T07:39:10.564Z,17.57
2023-07-26T07:41:39.088Z,17.58
2023-07-26T07:44:07.164Z,17.59
2023-07-26T07:46:35.270Z,17.59
2023-07-26T07:49:03.898Z,17.61
2023-07-26T07:51:32.232Z,17.64
2023-07-26T07:54:00.281Z,17.67
2023-07-26T07:56:28.064Z,17.73
2023-07-26T07:58:56.020Z,17.75
2023-07-26T08:01:25.281Z,17.76
2023-07-26T08:03:53.222Z,17.76
2023-07-26T08:06:21.192Z,17.77
2023-07-26T08:08:49.014Z,17.78
2023-07-26T08:11:16.796Z,17.81
2023-07-26T08:13:44.992Z,17.85
2023-07-26T08:16:13.210Z,17.86
2023-07-26T08:18:41.224Z,17.85
2023-07-26T08:21:12.443Z,17.84
2023-07-26T08:23:41.169Z,17.80
2023-07-26T08:26:10.652Z,17.77
2023-07-26T08:28:38.598Z,17.74
2023-07-26T08:31:06.650Z,17.74
2023-07-26T08:33:34.533Z,17.77
2023-07-26T08:36:02.970Z,17.75
2023-07-26T08:38:31.102Z,17.76
2023-07-26T08:40:59.262Z,17.78
2023-07-26T08:43:32.115Z,17.77
2023-07-26T08:46:04.352Z,17.73
2023-07-26T08:48:33.623Z,17.69
2023-07-26T08:51:02.388Z,17.65
2023-07-26T08:53:31.133Z,17.64
2023-07-26T08:55:59.303Z,17.67
2023-07-26T08:58:27.799Z,17.70
2023-07-26T09:00:55.851Z,17.73
2023-07-26T09:03:24.015Z,17.78
2023-07-26T09:06:12.352Z,17.76
2023-07-26T09:08:40.290Z,17.73
2023-07-26T09:11:21.977Z,17.72
2023-07-26T09:13:56.647Z,17.75
2023-07-26T09:16:28.715Z,17.77
2023-07-26T09:19:05.940Z,17.81
2023-07-26T09:21:37.067Z,17.88
2023-07-26T09:24:05.792Z,17.97
2023-07-26T09:26:42.323Z,18.03
2023-07-26T09:29:12.590Z,18.03
2023-07-26T09:31:44.520Z,18.05
2023-07-26T09:34:14.681Z,18.05
2023-07-26T09:36:47.670Z,18.07
2023-07-26T09:39:17.405Z,18.06
2023-07-26T09:41:47.257Z,18.07
2023-07-26T09:44:20.273Z,18.10
2023-07-26T09:46:51.957Z,18.12
2023-07-26T09:49:24.902Z,18.15
2023-07-26T09:54:33.075Z,18.19
2023-07-26T09:57:02.439Z,18.19
2023-07-26T09:59:31.614Z,18.19
2023-07-26T10:02:04.977Z,18.18
2023-07-26T10:04:43.077Z,18.20
2023-07-26T10:07:13.602Z,18.20
2023-07-26T10:09:45.100Z,18.24
2023-07-26T10:12:13.519Z,18.27
2023-07-26T10:14:41.417Z,18.31
2023-07-26T10:17:11.562Z,18.34
2023-07-26T10:19:40.263Z,18.35
2023-07-26T10:22:08.533Z,18.37
2023-07-26T10:24:38.160Z,18.36
2023-07-26T10:27:06.484Z,18.34
2023-07-26T10:29:34.482Z,18.29
2023-07-26T10:32:07.776Z,18.25
2023-07-26T10:34:35.988Z,18.21
2023-07-26T10:37:20.695Z,18.18
2023-07-26T10:39:50.600Z,18.17
2023-07-26T10:42:26.440Z,18.15
2023-07-26T10:44:56.377Z,18.14
2023-07-26T10:47:24.508Z,18.18
2023-07-26T10:49:55.345Z,18.18
2023-07-26T10:52:23.450Z,18.18
2023-07-26T10:54:52.140Z,18.21
2023-07-26T10:57:21.589Z,18.25
2023-07-26T10:59:57.938Z,18.26
2023-07-26T11:02:38.738Z,18.26
2023-07-26T11:05:14.314Z,18.27
2023-07-26T11:08:09.180Z,18.28
2023-07-26T11:10:50.609Z,18.30
2023-07-26T11:13:28.428Z,18.34
2023-07-26T11:16:15.602Z,18.37
2023-07-26T11:18:44.558Z,18.41
2023-07-26T11:21:16.934Z,18.44
2023-07-26T11:23:45.907Z,18.45
2023-07-26T11:26:13.690Z,18.50
2023-07-26T11:28:42.576Z,18.55
2023-07-26T11:31:20.359Z,18.59
2023-07-26T11:33:49.354Z,18.64
2023-07-26T11:36:21.645Z,18.70
2023-07-26T11:38:49.798Z,18.78
2023-07-26T11:41:21.034Z,18.85
2023-07-26T11:43:49.598Z,18.92
2023-07-26T11:46:27.379Z,18.95
2023-07-26T11:48:55.923Z,19.02
2023-07-26T11:51:23.909Z,19.08
2023-07-26T11:53:56.891Z,19.11
2023-07-26T11:56:32.622Z,19.13
2023-07-26T11:59:01.452Z,19.15
2023-07-26T12:01:30.429Z,19.16
2023-07-26T12:03:58.694Z,19.16
2023-07-26T12:06:34.695Z,19.17
2023-07-26T12:09:13.105Z,19.17
2023-07-26T12:11:43.505Z,19.15
2023-07-26T12:14:16.854Z,19.14
2023-07-26T12:16:54.886Z,19.13
2023-07-26T12:19:25.298Z,19.13
2023-07-26T12:21:53.965Z,19.12
2023-07-26T12:24:22.133Z,19.09
2023-07-26T12:26:53.193Z,19.07
2023-07-26T12:29:29.368Z,19.04
2023-07-26T12:32:04.608Z,18.99
2023-07-26T12:34:34.400Z,18.96
2023-07-26T12:37:02.567Z,18.93
2023-07-26T12:39:30.945Z,18.90
2023-07-26T12:41:59.085Z,18.88
2023-07-26T12:44:28.210Z,18.86
2023-07-26T12:47:26.775Z,18.84
2023-07-26T12:49:44.757Z,18.82
2023-07-26T12:52:12.721Z,18.82
2023-07-26T12:54:40.707Z,18.81
2023-07-26T12:57:08.653Z,18.80
2023-07-26T12:59:36.718Z,18.78
2023-07-26T13:02:05.903Z,18.77
2023-07-26T13:04:33.995Z,18.76
2023-07-26T13:07:02.003Z,18.77
2023-07-26T13:09:29.848Z,18.77
2023-07-26T13:11:58.052Z,18.77
2023-07-26T13:14:26.277Z,18.78
2023-07-26T13:16:54.015Z,18.79
2023-07-26T13:19:22.160Z,18.80
2023-07-26T13:21:49.896Z,18.83
2023-07-26T13:24:18.079Z,18.85
2023-07-26T13:26:46.090Z,18.89
2023-07-26T13:29:13.935Z,18.91
2023-07-26T13:31:41.803Z,18.94
2023-07-26T13:34:09.807Z,18.96
2023-07-26T13:36:37.691Z,19.01
2023-07-26T13:39:24.167Z,19.07
2023-07-26T13:41:52.408Z,19.13
2023-07-26T13:44:21.068Z,19.16
2023-07-26T13:46:49.026Z,19.17
2023-07-26T13:49:17.382Z,19.20
2023-07-26T13:51:48.382Z,19.22
2023-07-26T13:54:16.296Z,19.23
2023-07-26T13:56:44.119Z,19.23
2023-07-26T13:59:12.084Z,19.25
2023-07-26T14:01:40.077Z,19.26
2023-07-26T14:04:08.418Z,19.26
2023-07-26T14:06:36.401Z,19.27
2023-07-26T14:09:05.616Z,19.27
2023-07-26T14:11:34.882Z,19.28
2023-07-26T14:14:04.394Z,19.30
2023-07-26T14:16:32.381Z,19.32
2023-07-26T14:19:00.656Z,19.33
2023-07-26T14:21:28.437Z,19.35
2023-07-26T14:23:56.387Z,19.36
2023-07-26T14:26:24.605Z,19.38
2023-07-26T14:28:52.490Z,19.42
2023-07-26T14:31:20.559Z,19.45
2023-07-26T14:33:49.037Z,19.49
2023-07-26T14:36:16.952Z,19.51
2023-07-26T14:38:44.783Z,19.53
2023-07-26T14:41:12.798Z,19.56
2023-07-26T14:43:41.119Z,19.57
2023-07-26T14:46:10.378Z,19.59
2023-07-26T14:48:38.667Z,19.60
2023-07-26T14:51:06.525Z,19.64
2023-07-26T14:53:34.501Z,19.67
2023-07-26T14:56:02.434Z,19.69
2023-07-26T14:58:30.186Z,19.71
2023-07-26T15:00:58.250Z,19.74
2023-07-26T15:03:26.457Z,19.78
2023-07-26T15:05:54.843Z,19.82
2023-07-26T15:08:22.806Z,19.87
2023-07-26T15:10:51.727Z,19.92
2023-07-26T15:13:19.701Z,19.96
2023-07-26T15:15:47.458Z,19.99
2023-07-26T15:18:15.486Z,20.01
2023-07-26T15:20:43.893Z,20.06
2023-07-26T15:23:13.081Z,20.10
2023-07-26T15:25:41.491Z,20.13
2023-07-26T15:28:09.529Z,20.17
2023-07-26T15:30:38.228Z,20.18
2023-07-26T15:33:06.826Z,20.20
2023-07-26T15:35:37.906Z,20.24
2023-07-26T15:38:07.240Z,20.26
2023-07-26T15:43:22.973Z,20.32
2023-07-26T15:48:22.540Z,20.37
2023-07-26T15:53:22.581Z,20.41
2023-07-26T15:55:53.771Z,20.44
2023-07-26T15:58:27.775Z,20.46
2023-07-26T16:00:58.925Z,20.47
2023-07-26T16:11:00.754Z,20.50
2023-07-26T16:13:28.565Z,20.50
2023-07-26T16:18:28.689Z,20.50
2023-07-26T16:23:28.081Z,20.48
2023-07-26T16:25:56.057Z,20.46
2023-07-26T16:28:23.854Z,20.44
2023-07-26T16:30:51.847Z,20.41
2023-07-26T16:33:20.016Z,20.39
2023-07-26T16:35:47.889Z,20.39
2023-07-26T16:38:15.957Z,20.38
2023-07-26T16:40:43.826Z,20.37
2023-07-26T16:43:15.141Z,20.35
2023-07-26T16:45:43.096Z,20.34
2023-07-26T16:48:11.121Z,20.32
2023-07-26T16:50:39.048Z,20.29
2023-07-26T16:53:08.304Z,20.26
2023-07-26T16:55:36.248Z,20.24
2023-07-26T16:58:04.442Z,20.22
2023-07-26T17:00:33.009Z,20.19
2023-07-26T17:03:01.340Z,20.17
2023-07-26T17:05:29.584Z,20.15
2023-07-26T17:07:57.645Z,20.12
2023-07-26T17:10:25.681Z,20.09
2023-07-26T17:12:53.661Z,20.06
2023-07-26T17:15:21.916Z,20.03
2023-07-26T17:17:50.035Z,19.99
2023-07-26T17:20:18.733Z,19.96
2023-07-26T17:22:47.053Z,19.91
2023-07-26T17:25:15.283Z,19.86
2023-07-26T17:27:43.145Z,19.84
2023-07-26T17:30:11.797Z,19.79
2023-07-26T17:32:39.788Z,19.75
2023-07-26T17:35:10.098Z,19.71
2023-07-26T17:37:38.634Z,19.64
2023-07-26T17:40:07.152Z,19.60
2023-07-26T17:42:35.523Z,19.55
2023-07-26T17:45:05.202Z,19.49
2023-07-26T17:47:32.988Z,19.44
2023-07-26T17:50:00.930Z,19.41
2023-07-26T17:52:29.287Z,19.37
2023-07-26T17:54:57.253Z,19.33
2023-07-26T17:57:25.778Z,19.27
2023-07-26T17:59:53.752Z,19.22
2023-07-26T18:02:21.520Z,19.17
2023-07-26T18:04:49.338Z,19.14
2023-07-26T18:07:17.406Z,19.09
2023-07-26T18:09:45.943Z,19.06
2023-07-26T18:12:14.044Z,19.01
2023-07-26T18:14:41.887Z,18.96
2023-07-26T18:17:09.927Z,18.93
2023-07-26T18:19:37.812Z,18.89
2023-07-26T18:22:06.317Z,18.87
2023-07-26T18:24:34.280Z,18.84
2023-07-26T18:27:02.305Z,18.82
2023-07-26T18:29:30.221Z,18.80
2023-07-26T18:31:58.099Z,18.78
2023-07-26T18:34:25.914Z,18.77
2023-07-26T18:36:53.956Z,18.74
2023-07-26T18:39:22.325Z,18.73
2023-07-26T18:41:50.238Z,18.72
2023-07-26T18:44:18.275Z,18.70
2023-07-26T18:46:46.268Z,18.68
2023-07-26T18:49:14.126Z,18.67
2023-07-26T18:51:41.973Z,18.64
2023-07-26T18:54:09.784Z,18.61
2023-07-26T18:56:37.661Z,18.60
2023-07-26T18:59:05.565Z,18.58
2023-07-26T19:01:34.050Z,18.54
2023-07-26T19:04:02.063Z,18.53
2023-07-26T19:06:30.060Z,18.50
2023-07-26T19:08:58.134Z,18.47
2023-07-26T19:11:27.609Z,18.44
2023-07-26T19:13:55.829Z,18.41
2023-07-26T19:16:24.327Z,18.38
2023-07-26T19:18:53.552Z,18.36
2023-07-26T19:21:21.582Z,18.32
2023-07-26T19:23:49.529Z,18.29
2023-07-26T19:26:17.954Z,18.26
2023-07-26T19:28:47.045Z,18.21
2023-07-26T19:31:15.703Z,18.17
2023-07-26T19:33:44.479Z,18.14
2023-07-26T19:36:12.484Z,18.11
2023-07-26T19:38:40.861Z,18.09
2023-07-26T19:41:19.675Z,18.07
2023-07-26T19:43:48.963Z,18.03
2023-07-26T19:46:18.064Z,18.00
2023-07-26T19:48:51.703Z,17.96
2023-07-26T19:51:20.526Z,17.94
2023-07-26T19:53:48.377Z,17.92
2023-07-26T19:56:16.277Z,17.88
2023-07-26T19:58:44.192Z,17.84
2023-07-26T20:01:12.148Z,17.81
2023-07-26T20:03:40.098Z,17.77
2023-07-26T20:06:08.096Z,17.72
2023-07-26T20:08:35.896Z,17.67
2023-07-26T20:11:03.903Z,17.64
2023-07-26T20:13:31.992Z,17.59
2023-07-26T20:15:59.839Z,17.55
2023-07-26T20:18:28.062Z,17.53
2023-07-26T20:20:56.595Z,17.50
2023-07-26T20:23:24.547Z,17.47
2023-07-26T20:25:52.482Z,17.45
2023-07-26T20:28:20.395Z,17.42
2023-07-26T20:30:48.263Z,17.40
2023-07-26T20:33:16.252Z,17.37
2023-07-26T20:35:47.109Z,17.36
2023-07-26T20:38:15.002Z,17.33
2023-07-26T20:40:42.812Z,17.31
2023-07-26T20:43:10.747Z,17.27
2023-07-26T20:45:38.935Z,17.25
2023-07-26T20:48:07.190Z,17.23
2023-07-26T20:50:36.446Z,17.20
2023-07-26T20:53:04.597Z,17.18
2023-07-26T20:55:32.433Z,17.14
2023-07-26T20:58:00.292Z,17.11
2023-07-26T21:00:47.018Z,17.08
2023-07-26T21:03:14.940Z,17.05
2023-07-26T21:05:46.516Z,17.01
2023-07-26T21:08:14.683Z,16.98
2023-07-26T21:10:43.404Z,16.95
2023-07-26T21:13:11.213Z,16.91
2023-07-26T21:15:39.185Z,16.88
2023-07-26T21:18:07.242Z,16.83
2023-07-26T21:20:36.356Z,16.80
2023-07-26T21:23:04.239Z,16.76
2023-07-26T21:25:32.200Z,16.72
2023-07-26T21:28:00.140Z,16.68
2023-07-26T21:30:28.832Z,16.65
2023-07-26T21:32:57.066Z,16.62
2023-07-26T21:35:24.908Z,16.57
2023-07-26T21:37:52.693Z,16.53
2023-07-26T21:40:20.664Z,16.48
2023-07-26T21:42:48.514Z,16.43
2023-07-26T21:45:16.375Z,16.38
2023-07-26T21:47:44.337Z,16.35
2023-07-26T21:50:12.427Z,16.31
2023-07-26T21:52:40.292Z,16.28
2023-07-26T21:55:08.823Z,16.24
2023-07-26T21:57:40.041Z,16.21
2023-07-26T22:00:12.509Z,16.17
2023-07-26T22:02:40.634Z,16.13
2023-07-26T22:05:09.624Z,16.08
2023-07-26T22:07:37.714Z,16.02
2023-07-26T22:10:05.978Z,15.95
2023-07-26T22:12:34.004Z,15.87
2023-07-26T22:15:01.996Z,15.81
2023-07-26T22:17:30.189Z,15.79
2023-07-26T22:19:58.333Z,15.75
2023-07-26T22:22:27.440Z,15.73
2023-07-26T22:24:55.663Z,15.70
2023-07-26T22:27:23.618Z,15.67
2023-07-26T22:29:51.706Z,15.62
2023-07-26T22:32:19.549Z,15.58
2023-07-26T22:34:47.539Z,15.54
2023-07-26T22:37:15.521Z,15.52
2023-07-26T22:39:43.408Z,15.49
2023-07-26T22:42:11.361Z,15.47
2023-07-26T22:44:39.176Z,15.49
2023-07-26T22:47:08.103Z,15.54
2023-07-26T22:49:36.214Z,15.60
2023-07-26T22:52:04.335Z,15.65
2023-07-26T22:54:32.176Z,15.68
2023-07-26T22:57:00.098Z,15.69
2023-07-26T22:59:28.091Z,15.70
2023-07-26T23:01:56.123Z,15.69
2023-07-26T23:04:23.904Z,15.68
2023-07-26T23:06:51.978Z,15.65
2023-07-26T23:09:19.789Z,15.62
2023-07-26T23:11:47.534Z,15.60
2023-07-26T23:14:15.570Z,15.58
2023-07-26T23:16:43.465Z,15.54
2023-07-26T23:19:11.324Z,15.51
2023-07-26T23:21:39.417Z,15.47
2023-07-26T23:24:07.493Z,15.43
2023-07-26T23:26:35.837Z,15.39
2023-07-26T23:29:04.170Z,15.35
2023-07-26T23:31:32.054Z,15.33
2023-07-26T23:34:00.810Z,15.28
2023-07-26T23:36:28.634Z,15.24
2023-07-26T23:38:56.760Z,15.21
2023-07-26T23:41:24.878Z,15.19
2023-07-26T23:43:52.846Z,15.18
2023-07-26T23:46:20.739Z,15.15
2023-07-26T23:48:51.239Z,15.13
2023-07-26T23:51:19.183Z,15.12
2023-07-26T23:53:47.329Z,15.15
2023-07-26T23:56:15.311Z,15.19
2023-07-26T23:58:43.122Z,15.20
